createdAt,value
2017-08-19T00:00:49.593Z,100298.52
2017-08-19T00:01:55.414Z,100295.14
2017-08-19T00:03:01.512Z,100296.80
2017-08-19T00:04:07.569Z,100299.77
2017-08-19T00:05:13.584Z,100300.89
2017-08-19T00:06:19.589Z,100301.06
2017-08-19T00:07:25.650Z,100299.09
2017-08-19T00:08:31.690Z,100300.20
2017-08-19T00:09:37.516Z,100304.23
2017-08-19T00:10:43.561Z,100302.59
2017-08-19T00:11:49.578Z,100309.22
2017-08-19T00:12:55.611Z,100310.64
2017-08-19T00:14:01.721Z,100312.22
2017-08-19T00:15:07.776Z,100316.39
2017-08-19T00:16:13.804Z,100310.02
2017-08-19T00:17:19.790Z,100315.09
2017-08-19T00:18:25.835Z,100311.14
2017-08-19T00:19:31.874Z,100307.84
2017-08-19T00:20:37.885Z,100312.98
2017-08-19T00:21:43.906Z,100310.89
2017-08-19T00:22:49.899Z,100315.01
2017-08-19T00:23:55.943Z,100307.56
2017-08-19T00:25:02.026Z,100308.34
2017-08-19T00:26:08.085Z,100312.86
2017-08-19T00:27:14.113Z,100314.75
2017-08-19T00:28:20.151Z,100312.06
2017-08-19T00:29:26.181Z,100313.61
2017-08-19T00:30:32.265Z,100320.80
2017-08-19T00:31:37.924Z,100318.92
2017-08-19T00:32:43.933Z,100320.80
2017-08-19T00:33:49.931Z,100316.43
2017-08-19T00:34:55.948Z,100316.89
2017-08-19T00:36:01.663Z,100316.08
2017-08-19T00:37:07.701Z,100319.34
2017-08-19T00:38:13.725Z,100320.04
2017-08-19T00:39:19.779Z,100322.14
2017-08-19T00:40:25.483Z,100330.38
2017-08-19T00:41:31.557Z,100334.97
2017-08-19T00:42:37.185Z,100325.39
2017-08-19T00:43:43.217Z,100325.50
2017-08-19T00:44:49.227Z,100328.20
2017-08-19T00:45:55.290Z,100328.42
2017-08-19T00:47:01.317Z,100322.73
2017-08-19T00:48:07.349Z,100320.47
2017-08-19T00:49:12.990Z,100320.28
2017-08-19T00:50:18.326Z,100318.58
2017-08-19T00:51:23.707Z,100319.00
2017-08-19T00:52:29.775Z,100322.55
2017-08-19T00:53:35.424Z,100323.42
2017-08-19T00:54:41.433Z,100328.36
2017-08-19T00:55:47.100Z,100321.73
2017-08-19T00:56:52.767Z,100329.34
2017-08-19T00:57:58.918Z,100323.94
2017-08-19T00:59:05.027Z,100324.73
2017-08-19T01:00:10.715Z,100322.67
2017-08-19T01:01:16.170Z,100326.23
2017-08-19T01:02:21.853Z,100321.34
2017-08-19T01:03:27.907Z,100320.59
2017-08-19T01:04:37.301Z,100316.79
2017-08-19T01:05:42.689Z,100323.64
2017-08-19T01:06:48.022Z,100320.07
2017-08-19T01:07:53.157Z,100326.92
2017-08-19T01:08:58.310Z,100322.13
2017-08-19T01:10:04.244Z,100320.39
2017-08-19T01:11:11.152Z,100326.38
2017-08-19T01:12:17.181Z,100328.47
2017-08-19T01:13:23.185Z,100325.66
2017-08-19T01:14:29.225Z,100322.69
2017-08-19T01:15:35.279Z,100316.97
2017-08-19T01:16:41.334Z,100316.84
2017-08-19T01:17:47.366Z,100317.48
2017-08-19T01:18:53.393Z,100315.50
2017-08-19T01:19:59.512Z,100306.52
2017-08-19T01:21:05.156Z,100306.03
2017-08-19T01:22:10.473Z,100310.59
2017-08-19T01:23:16.327Z,100311.48
2017-08-19T01:24:22.007Z,100316.91
2017-08-19T01:25:39.073Z,100321.30
2017-08-19T01:26:55.798Z,100326.13
2017-08-19T01:28:01.849Z,100322.61
2017-08-19T01:29:07.857Z,100325.17
2017-08-19T01:30:14.383Z,100322.72
2017-08-19T01:31:21.077Z,100330.84
2017-08-19T01:32:27.231Z,100336.24
2017-08-19T01:33:33.084Z,100335.09
2017-08-19T01:34:39.113Z,100342.09
2017-08-19T01:35:45.131Z,100337.61
2017-08-19T01:36:51.241Z,100338.47
2017-08-19T01:37:57.304Z,100344.88
2017-08-19T01:39:03.407Z,100348.81
2017-08-19T01:40:09.422Z,100343.05
2017-08-19T01:41:15.432Z,100346.55
2017-08-19T01:42:21.486Z,100344.95
2017-08-19T01:43:27.534Z,100348.98
2017-08-19T01:44:33.714Z,100341.34
2017-08-19T01:45:40.060Z,100343.73
2017-08-19T01:46:46.154Z,100342.19
2017-08-19T01:47:52.029Z,100342.44
2017-08-19T01:48:58.070Z,100346.20
2017-08-19T01:50:04.178Z,100346.33
2017-08-19T01:51:10.205Z,100344.67
2017-08-19T01:52:16.223Z,100345.32
2017-08-19T01:53:22.297Z,100348.91
2017-08-19T01:54:28.366Z,100340.22
2017-08-19T01:55:34.392Z,100342.52
2017-08-19T01:56:40.460Z,100345.95
2017-08-19T01:57:47.185Z,100339.22
2017-08-19T01:58:54.324Z,100347.29
2017-08-19T02:00:00.738Z,100347.25
2017-08-19T02:01:06.661Z,100345.80
2017-08-19T02:02:13.015Z,100352.75
2017-08-19T02:03:19.090Z,100348.09
2017-08-19T02:04:25.443Z,100356.30
2017-08-19T02:05:31.831Z,100361.64
2017-08-19T02:06:39.846Z,100350.39
2017-08-19T02:07:48.703Z,100346.58
2017-08-19T02:08:54.873Z,100348.33
2017-08-19T02:10:00.785Z,100350.34
2017-08-19T02:11:06.841Z,100356.34
2017-08-19T02:12:12.966Z,100357.02
2017-08-19T02:13:18.994Z,100353.00
2017-08-19T02:14:25.046Z,100351.41
2017-08-19T02:15:31.107Z,100357.52
2017-08-19T02:16:37.199Z,100354.70
2017-08-19T02:17:43.242Z,100356.32
2017-08-19T02:18:49.301Z,100352.94
2017-08-19T02:19:55.325Z,100357.98
2017-08-19T02:21:01.426Z,100356.59
2017-08-19T02:22:07.465Z,100356.04
2017-08-19T02:23:13.804Z,100353.23
2017-08-19T02:24:19.925Z,100360.38
2017-08-19T02:25:25.968Z,100356.23
2017-08-19T02:26:32.361Z,100360.64
2017-08-19T02:27:41.466Z,100360.47
2017-08-19T02:28:47.526Z,100367.17
2017-08-19T02:29:53.679Z,100364.87
2017-08-19T02:30:59.886Z,100368.12
2017-08-19T02:32:06.293Z,100369.23
2017-08-19T02:33:12.361Z,100369.67
2017-08-19T02:34:18.971Z,100365.48
2017-08-19T02:35:25.126Z,100363.47
2017-08-19T02:36:32.013Z,100358.86
2017-08-19T02:37:38.055Z,100369.19
2017-08-19T02:38:44.101Z,100363.59
2017-08-19T02:39:51.046Z,100364.78
2017-08-19T02:40:57.294Z,100364.83
2017-08-19T02:42:03.408Z,100357.79
2017-08-19T02:43:10.032Z,100361.38
2017-08-19T02:44:16.053Z,100358.42
2017-08-19T02:45:22.808Z,100352.91
2017-08-19T02:46:28.818Z,100360.59
2017-08-19T02:47:34.933Z,100365.09
2017-08-19T02:48:41.137Z,100366.16
2017-08-19T02:49:47.662Z,100368.34
2017-08-19T02:50:53.708Z,100359.31
2017-08-19T02:51:59.563Z,100363.55
2017-08-19T02:53:05.572Z,100362.39
2017-08-19T02:54:11.717Z,100361.23
2017-08-19T02:55:17.802Z,100370.39
2017-08-19T02:56:23.650Z,100365.78
2017-08-19T02:57:29.670Z,100365.17
2017-08-19T02:58:35.764Z,100361.12
2017-08-19T02:59:41.863Z,100366.16
2017-08-19T03:00:47.961Z,100362.14
2017-08-19T03:01:53.989Z,100365.83
2017-08-19T03:03:00.024Z,100363.05
2017-08-19T03:04:06.092Z,100367.06
2017-08-19T03:05:12.128Z,100359.16
2017-08-19T03:06:18.141Z,100366.03
2017-08-19T03:07:24.223Z,100371.07
2017-08-19T03:08:30.272Z,100370.30
2017-08-19T03:09:36.351Z,100369.23
2017-08-19T03:10:42.474Z,100369.66
2017-08-19T03:11:48.650Z,100377.44
2017-08-19T03:12:54.685Z,100377.27
2017-08-19T03:14:00.697Z,100376.63
2017-08-19T03:15:06.753Z,100373.89
2017-08-19T03:16:12.854Z,100373.94
2017-08-19T03:17:18.876Z,100381.58
2017-08-19T03:18:24.909Z,100383.45
2017-08-19T03:19:30.921Z,100392.21
2017-08-19T03:20:36.922Z,100387.05
2017-08-19T03:21:43.003Z,100390.93
2017-08-19T03:22:49.033Z,100390.45
2017-08-19T03:23:55.072Z,100389.78
2017-08-19T03:25:01.106Z,100393.74
2017-08-19T03:26:07.117Z,100397.50
2017-08-19T03:27:13.233Z,100400.67
2017-08-19T03:28:19.262Z,100400.50
2017-08-19T03:29:25.299Z,100405.97
2017-08-19T03:30:31.647Z,100402.50
2017-08-19T03:31:37.678Z,100410.87
2017-08-19T03:32:43.786Z,100404.42
2017-08-19T03:33:49.882Z,100406.16
2017-08-19T03:34:55.934Z,100405.02
2017-08-19T03:36:01.959Z,100406.38
2017-08-19T03:37:07.970Z,100409.72
2017-08-19T03:38:14.031Z,100404.80
2017-08-19T03:39:20.050Z,100405.75
2017-08-19T03:40:26.063Z,100405.02
2017-08-19T03:41:32.074Z,100406.86
2017-08-19T03:42:38.074Z,100408.31
2017-08-19T03:43:44.107Z,100403.02
2017-08-19T03:44:50.131Z,100410.87
2017-08-19T03:45:56.155Z,100411.62
2017-08-19T03:47:02.177Z,100411.15
2017-08-19T03:48:08.205Z,100414.63
2017-08-19T03:49:14.256Z,100420.19
2017-08-19T03:50:20.342Z,100422.02
2017-08-19T03:51:26.371Z,100423.61
2017-08-19T03:52:32.401Z,100423.23
2017-08-19T03:53:38.449Z,100421.34
2017-08-19T03:54:44.523Z,100428.70
2017-08-19T03:55:50.567Z,100425.88
2017-08-19T03:56:56.633Z,100425.31
2017-08-19T03:58:02.666Z,100427.03
2017-08-19T03:59:08.740Z,100427.16
2017-08-19T04:00:14.128Z,100426.06
2017-08-19T04:01:19.994Z,100427.08
2017-08-19T04:02:25.661Z,100426.09
2017-08-19T04:03:31.682Z,100424.81
2017-08-19T04:04:37.744Z,100435.34
2017-08-19T04:05:43.438Z,100436.13
2017-08-19T04:06:49.498Z,100432.16
2017-08-19T04:07:55.572Z,100429.86
2017-08-19T04:09:01.577Z,100430.98
2017-08-19T04:10:07.415Z,100432.42
2017-08-19T04:11:13.517Z,100431.08
2017-08-19T04:12:22.892Z,100429.38
2017-08-19T04:13:28.946Z,100434.63
2017-08-19T04:14:34.994Z,100428.01
2017-08-19T04:15:41.046Z,100439.02
2017-08-19T04:16:47.100Z,100433.61
2017-08-19T04:17:53.145Z,100445.52
2017-08-19T04:18:59.201Z,100439.38
2017-08-19T04:20:05.314Z,100441.73
2017-08-19T04:21:11.382Z,100451.73
2017-08-19T04:22:17.431Z,100449.63
2017-08-19T04:23:23.487Z,100448.27
2017-08-19T04:24:29.536Z,100447.20
2017-08-19T04:25:35.571Z,100449.02
2017-08-19T04:26:41.739Z,100452.80
2017-08-19T04:27:48.522Z,100452.72
2017-08-19T04:28:54.584Z,100451.98
2017-08-19T04:30:00.665Z,100454.98
2017-08-19T04:31:06.732Z,100454.31
2017-08-19T04:32:15.448Z,100458.36
2017-08-19T04:33:25.699Z,100457.81
2017-08-19T04:34:31.413Z,100450.64
2017-08-19T04:35:37.484Z,100456.80
2017-08-19T04:36:43.507Z,100452.83
2017-08-19T04:37:49.548Z,100449.16
2017-08-19T04:38:55.638Z,100455.05
2017-08-19T04:40:01.660Z,100459.16
2017-08-19T04:41:07.665Z,100464.03
2017-08-19T04:42:13.714Z,100458.84
2017-08-19T04:43:19.569Z,100467.71
2017-08-19T04:44:25.675Z,100467.47
2017-08-19T04:45:31.713Z,100463.55
2017-08-19T04:46:37.552Z,100465.36
2017-08-19T04:47:43.633Z,100464.90
2017-08-19T04:48:49.718Z,100466.26
2017-08-19T04:49:55.820Z,100467.09
2017-08-19T04:51:01.832Z,100469.77
2017-08-19T04:52:07.862Z,100469.70
2017-08-19T04:53:20.506Z,100475.95
2017-08-19T04:54:26.528Z,100481.50
2017-08-19T04:55:32.629Z,100476.97
2017-08-19T04:56:38.641Z,100478.11
2017-08-19T04:57:44.691Z,100483.31
2017-08-19T04:58:51.131Z,100481.59
2017-08-19T04:59:57.165Z,100479.30
2017-08-19T05:01:03.334Z,100492.66
2017-08-19T05:02:09.373Z,100491.53
2017-08-19T05:03:15.423Z,100492.86
2017-08-19T05:04:21.465Z,100496.20
2017-08-19T05:05:27.562Z,100497.96
2017-08-19T05:06:33.649Z,100498.10
2017-08-19T05:07:39.701Z,100503.28
2017-08-19T05:08:45.766Z,100502.63
2017-08-19T05:09:51.807Z,100503.02
2017-08-19T05:10:57.858Z,100506.48
2017-08-19T05:12:04.429Z,100508.46
2017-08-19T05:13:10.453Z,100504.62
2017-08-19T05:14:16.817Z,100507.38
2017-08-19T05:15:22.822Z,100505.81
2017-08-19T05:16:28.886Z,100502.91
2017-08-19T05:17:34.972Z,100504.11
2017-08-19T05:18:41.018Z,100502.47
2017-08-19T05:19:47.078Z,100509.52
2017-08-19T05:20:53.168Z,100511.11
2017-08-19T05:21:59.231Z,100506.17
2017-08-19T05:23:05.382Z,100507.49
2017-08-19T05:24:11.415Z,100511.23
2017-08-19T05:25:17.500Z,100510.05
2017-08-19T05:26:23.565Z,100511.13
2017-08-19T05:27:29.602Z,100512.95
2017-08-19T05:28:35.666Z,100510.78
2017-08-19T05:29:41.713Z,100512.50
2017-08-19T05:30:47.738Z,100518.69
2017-08-19T05:31:53.773Z,100510.73
2017-08-19T05:32:59.860Z,100518.87
2017-08-19T05:34:09.485Z,100522.22
2017-08-19T05:35:18.840Z,100515.66
2017-08-19T05:36:25.077Z,100518.81
2017-08-19T05:37:31.130Z,100515.21
2017-08-19T05:38:37.174Z,100518.37
2017-08-19T05:39:49.126Z,100518.30
2017-08-19T05:40:58.407Z,100527.25
2017-08-19T05:42:06.287Z,100522.62
2017-08-19T05:43:14.897Z,100528.27
2017-08-19T05:44:22.950Z,100529.31
2017-08-19T05:45:29.139Z,100534.57
2017-08-19T05:46:36.929Z,100536.95
2017-08-19T05:47:43.414Z,100545.71
2017-08-19T05:48:51.089Z,100540.22
2017-08-19T05:49:58.304Z,100541.81
2017-08-19T05:51:05.790Z,100548.66
2017-08-19T05:52:13.249Z,100546.09
2017-08-19T05:53:20.110Z,100552.53
2017-08-19T05:54:28.002Z,100549.53
2017-08-19T05:55:35.978Z,100556.42
2017-08-19T05:56:43.162Z,100560.70
2017-08-19T05:57:51.672Z,100562.72
2017-08-19T05:58:58.791Z,100563.05
2017-08-19T06:00:07.540Z,100567.62
2017-08-19T06:01:14.887Z,100570.27
2017-08-19T06:02:23.578Z,100573.85
2017-08-19T06:03:31.948Z,100569.86
2017-08-19T06:04:40.564Z,100571.30
2017-08-19T06:05:48.368Z,100576.55
2017-08-19T06:06:56.906Z,100574.48
2017-08-19T06:08:04.638Z,100580.52
2017-08-19T06:09:12.220Z,100572.55
2017-08-19T06:10:20.859Z,100579.05
2017-08-19T06:11:29.027Z,100575.19
2017-08-19T06:12:36.487Z,100574.05
2017-08-19T06:13:44.558Z,100569.66
2017-08-19T06:14:50.925Z,100575.23
2017-08-19T06:16:02.584Z,100573.40
2017-08-19T06:17:11.528Z,100577.36
2017-08-19T06:18:19.522Z,100576.28
2017-08-19T06:19:27.052Z,100575.30
2017-08-19T06:20:36.071Z,100578.45
2017-08-19T06:21:42.279Z,100581.77
2017-08-19T06:22:50.518Z,100582.19
2017-08-19T06:23:57.329Z,100583.91
2017-08-19T06:25:04.401Z,100584.38
2017-08-19T06:26:12.648Z,100586.67
2017-08-19T06:27:19.400Z,100586.19
2017-08-19T06:28:27.538Z,100588.41
2017-08-19T06:29:36.065Z,100588.11
2017-08-19T06:30:44.543Z,100590.98
2017-08-19T06:31:52.051Z,100584.88
2017-08-19T06:32:58.902Z,100588.73
2017-08-19T06:34:07.526Z,100586.51
2017-08-19T06:35:15.517Z,100592.59
2017-08-19T06:36:25.336Z,100590.83
2017-08-19T06:37:34.041Z,100591.49
2017-08-19T06:38:41.810Z,100595.73
2017-08-19T06:39:48.716Z,100599.23
2017-08-19T06:40:57.100Z,100604.53
2017-08-19T06:42:05.798Z,100599.40
2017-08-19T06:43:13.928Z,100603.13
2017-08-19T06:44:20.549Z,100604.22
2017-08-19T06:45:26.598Z,100603.84
2017-08-19T06:46:34.156Z,100603.13
2017-08-19T06:47:42.224Z,100608.85
2017-08-19T06:48:50.398Z,100611.45
2017-08-19T06:49:59.075Z,100609.52
2017-08-19T06:51:06.504Z,100617.26
2017-08-19T06:52:14.054Z,100614.84
2017-08-19T06:53:21.642Z,100622.59
2017-08-19T06:54:31.130Z,100624.84
2017-08-19T06:55:41.110Z,100629.79
2017-08-19T06:56:48.774Z,100628.84
2017-08-19T06:58:03.765Z,100627.64
2017-08-19T06:59:12.105Z,100626.84
2017-08-19T07:00:19.785Z,100621.08
2017-08-19T07:01:27.429Z,100619.84
2017-08-19T07:02:34.931Z,100622.44
2017-08-19T07:03:41.634Z,100623.02
2017-08-19T07:04:48.376Z,100621.66
2017-08-19T07:05:58.192Z,100619.36
2017-08-19T07:07:05.748Z,100615.35
2017-08-19T07:08:14.133Z,100620.02
2017-08-19T07:09:21.523Z,100617.22
2017-08-19T07:10:28.109Z,100622.73
2017-08-19T07:11:34.926Z,100622.94
2017-08-19T07:12:43.939Z,100624.25
2017-08-19T07:13:51.090Z,100624.98
2017-08-19T07:14:59.221Z,100629.80
2017-08-19T07:16:06.922Z,100620.77
2017-08-19T07:17:14.316Z,100627.19
2017-08-19T07:18:20.746Z,100631.95
2017-08-19T07:19:31.381Z,100641.56
2017-08-19T07:20:41.098Z,100636.47
2017-08-19T07:21:50.355Z,100647.00
2017-08-19T07:22:58.829Z,100649.92
2017-08-19T07:24:06.815Z,100656.28
2017-08-19T07:25:14.305Z,100648.84
2017-08-19T07:26:21.535Z,100647.64
2017-08-19T07:27:28.571Z,100652.44
2017-08-19T07:28:36.107Z,100655.98
2017-08-19T07:29:43.581Z,100652.20
2017-08-19T07:30:50.347Z,100647.81
2017-08-19T07:31:57.415Z,100648.55
2017-08-19T07:33:04.455Z,100646.33
2017-08-19T07:34:11.378Z,100651.25
2017-08-19T07:35:19.221Z,100653.20
2017-08-19T07:36:25.989Z,100647.92
2017-08-19T07:37:32.972Z,100653.91
2017-08-19T07:38:39.401Z,100646.26
2017-08-19T07:39:47.088Z,100656.89
2017-08-19T07:40:53.959Z,100641.60
2017-08-19T07:42:01.861Z,100642.36
2017-08-19T07:43:08.552Z,100649.95
2017-08-19T07:44:15.471Z,100646.27
2017-08-19T07:45:22.175Z,100659.56
2017-08-19T07:46:28.927Z,100659.00
2017-08-19T07:47:35.660Z,100664.97
2017-08-19T07:48:42.561Z,100664.27
2017-08-19T07:49:49.698Z,100671.02
2017-08-19T07:50:57.127Z,100674.77
2017-08-19T07:52:04.932Z,100679.36
2017-08-19T07:53:13.085Z,100683.22
2017-08-19T07:54:22.015Z,100687.83
2017-08-19T07:55:29.163Z,100695.42
2017-08-19T07:56:37.039Z,100697.52
2017-08-19T07:57:45.083Z,100694.47
2017-08-19T07:58:51.662Z,100699.73
2017-08-19T07:59:59.734Z,100698.38
2017-08-19T08:01:06.885Z,100702.94
2017-08-19T08:02:16.098Z,100705.05
2017-08-19T08:03:23.914Z,100701.47
2017-08-19T08:04:30.872Z,100694.47
2017-08-19T08:05:37.310Z,100704.70
2017-08-19T08:06:43.732Z,100700.88
2017-08-19T08:07:50.247Z,100701.27
2017-08-19T08:08:58.726Z,100699.16
2017-08-19T08:10:06.257Z,100698.50
2017-08-19T08:11:13.612Z,100693.34
2017-08-19T08:12:21.644Z,100690.56
2017-08-19T08:13:28.076Z,100697.64
2017-08-19T08:14:36.011Z,100691.66
2017-08-19T08:15:43.342Z,100691.93
2017-08-19T08:16:50.206Z,100690.78
2017-08-19T08:17:59.405Z,100689.64
2017-08-19T08:19:07.278Z,100686.12
2017-08-19T08:20:14.614Z,100687.92
2017-08-19T08:21:28.475Z,100694.52
2017-08-19T08:22:36.941Z,100687.88
2017-08-19T08:23:44.137Z,100688.97
2017-08-19T08:24:50.899Z,100680.30
2017-08-19T08:25:58.872Z,100688.31
2017-08-19T08:27:07.249Z,100687.59
2017-08-19T08:28:14.345Z,100680.52
2017-08-19T08:29:21.408Z,100687.38
2017-08-19T08:30:28.386Z,100686.45
2017-08-19T08:31:34.397Z,100686.54
2017-08-19T08:32:40.450Z,100683.50
2017-08-19T08:33:47.535Z,100678.29
2017-08-19T08:34:56.710Z,100687.78
2017-08-19T08:36:06.849Z,100684.59
2017-08-19T08:37:13.680Z,100678.17
2017-08-19T08:38:20.369Z,100678.52
2017-08-19T08:39:27.802Z,100672.83
2017-08-19T08:40:35.173Z,100668.55
2017-08-19T08:41:43.178Z,100670.17
2017-08-19T08:42:51.639Z,100678.48
2017-08-19T08:44:00.209Z,100684.42
2017-08-19T08:45:07.565Z,100684.86
2017-08-19T08:46:16.206Z,100686.35
2017-08-19T08:47:23.211Z,100688.58
2017-08-19T08:48:29.855Z,100690.39
2017-08-19T08:49:36.929Z,100687.83
2017-08-19T08:50:44.734Z,100695.09
2017-08-19T08:51:52.448Z,100691.91
2017-08-19T08:53:01.554Z,100692.00
2017-08-19T08:54:08.164Z,100698.59
2017-08-19T08:55:14.904Z,100698.39
2017-08-19T08:56:22.323Z,100704.61
2017-08-19T08:57:30.466Z,100711.52
2017-08-19T08:58:37.168Z,100700.97
2017-08-19T08:59:44.990Z,100707.02
2017-08-19T09:00:53.502Z,100700.88
2017-08-19T09:02:01.568Z,100704.50
2017-08-19T09:03:10.040Z,100698.85
2017-08-19T09:04:18.437Z,100697.34
2017-08-19T09:05:26.792Z,100697.95
2017-08-19T09:06:34.258Z,100702.77
2017-08-19T09:07:40.470Z,100706.81
2017-08-19T09:08:46.973Z,100709.64
2017-08-19T09:09:54.895Z,100710.52
2017-08-19T09:11:01.573Z,100716.81
2017-08-19T09:12:09.140Z,100718.59
2017-08-19T09:13:16.634Z,100722.03
2017-08-19T09:14:23.233Z,100723.58
2017-08-19T09:15:30.488Z,100721.06
2017-08-19T09:16:37.579Z,100716.14
2017-08-19T09:17:45.321Z,100715.89
2017-08-19T09:18:52.657Z,100716.94
2017-08-19T09:20:00.882Z,100714.70
2017-08-19T09:21:08.924Z,100713.69
2017-08-19T09:22:16.722Z,100711.41
2017-08-19T09:23:22.990Z,100708.43
2017-08-19T09:24:33.332Z,100701.11
2017-08-19T09:25:40.864Z,100704.98
2017-08-19T09:26:48.181Z,100712.20
2017-08-19T09:27:55.173Z,100711.17
2017-08-19T09:29:02.105Z,100707.36
2017-08-19T09:30:09.420Z,100705.56
2017-08-19T09:31:19.308Z,100692.77
2017-08-19T09:32:26.485Z,100685.96
2017-08-19T09:33:35.228Z,100690.06
2017-08-19T09:34:42.813Z,100683.48
2017-08-19T09:35:51.886Z,100693.95
2017-08-19T09:37:00.577Z,100680.42
2017-08-19T09:38:06.915Z,100675.20
2017-08-19T09:39:14.453Z,100673.50
2017-08-19T09:40:21.983Z,100671.30
2017-08-19T09:41:29.237Z,100664.47
2017-08-19T09:42:36.471Z,100676.22
2017-08-19T09:43:45.895Z,100670.04
2017-08-19T09:44:54.074Z,100674.28
2017-08-19T09:46:02.908Z,100671.71
2017-08-19T09:47:09.722Z,100667.61
2017-08-19T09:48:17.026Z,100663.86
2017-08-19T09:49:26.500Z,100672.19
2017-08-19T09:50:33.981Z,100678.78
2017-08-19T09:51:41.086Z,100681.14
2017-08-19T09:52:49.228Z,100683.01
2017-08-19T09:53:56.068Z,100682.88
2017-08-19T09:55:04.787Z,100687.48
2017-08-19T09:56:13.194Z,100689.69
2017-08-19T09:57:20.423Z,100687.42
2017-08-19T09:58:28.861Z,100687.00
2017-08-19T09:59:35.533Z,100692.02
2017-08-19T10:00:42.482Z,100690.31
2017-08-19T10:01:48.845Z,100686.09
2017-08-19T10:02:55.237Z,100684.90
2017-08-19T10:04:02.743Z,100688.78
2017-08-19T10:05:09.066Z,100686.84
2017-08-19T10:06:19.772Z,100695.60
2017-08-19T10:07:25.787Z,100686.00
2017-08-19T10:08:42.859Z,100686.47
2017-08-19T10:09:48.447Z,100686.28
2017-08-19T10:10:55.659Z,100691.34
2017-08-19T10:12:01.716Z,100686.71
2017-08-19T10:13:07.792Z,100692.13
2017-08-19T10:14:13.839Z,100691.08
2017-08-19T10:15:19.885Z,100683.81
2017-08-19T10:16:25.777Z,100687.62
2017-08-19T10:17:31.806Z,100686.20
2017-08-19T10:18:37.841Z,100684.63
2017-08-19T10:19:43.849Z,100683.73
2017-08-19T10:20:49.884Z,100683.29
2017-08-19T10:21:55.941Z,100685.64
2017-08-19T10:23:01.956Z,100682.55
2017-08-19T10:24:07.971Z,100687.40
2017-08-19T10:25:13.988Z,100677.03
2017-08-19T10:26:20.095Z,100690.63
2017-08-19T10:27:26.121Z,100688.84
2017-08-19T10:28:32.156Z,100690.74
2017-08-19T10:29:38.219Z,100683.63
2017-08-19T10:30:44.241Z,100682.20
2017-08-19T10:31:50.290Z,100682.09
2017-08-19T10:32:56.394Z,100682.69
2017-08-19T10:34:02.439Z,100682.06
2017-08-19T10:35:08.465Z,100673.77
2017-08-19T10:36:14.494Z,100676.88
2017-08-19T10:37:20.522Z,100678.00
2017-08-19T10:38:26.591Z,100661.94
2017-08-19T10:39:32.618Z,100666.28
2017-08-19T10:40:38.645Z,100660.09
2017-08-19T10:41:44.481Z,100662.85
2017-08-19T10:42:50.507Z,100667.45
2017-08-19T10:43:56.612Z,100662.70
2017-08-19T10:45:02.650Z,100667.27
2017-08-19T10:46:08.691Z,100667.80
2017-08-19T10:47:16.572Z,100664.30
2017-08-19T10:48:28.253Z,100658.58
2017-08-19T10:49:34.329Z,100664.61
2017-08-19T10:50:56.422Z,100660.52
2017-08-19T10:52:03.380Z,100663.63
2017-08-19T10:56:33.984Z,100667.86
2017-08-19T10:57:48.300Z,100664.83
2017-08-19T10:58:59.719Z,100667.90
2017-08-19T11:00:06.615Z,100663.58
2017-08-19T11:01:13.307Z,100666.96
2017-08-19T11:02:19.359Z,100665.45
2017-08-19T11:03:25.397Z,100668.20
2017-08-19T11:04:31.424Z,100661.09
2017-08-19T11:05:37.498Z,100667.69
2017-08-19T11:06:43.537Z,100663.86
2017-08-19T11:07:52.971Z,100661.42
2017-08-19T11:09:01.597Z,100661.57
2017-08-19T11:10:07.698Z,100663.91
2017-08-19T11:11:13.824Z,100666.78
2017-08-19T11:12:19.856Z,100654.86
2017-08-19T11:13:25.933Z,100662.12
2017-08-19T11:14:32.025Z,100661.59
2017-08-19T11:15:38.070Z,100662.33
2017-08-19T11:16:44.174Z,100667.69
2017-08-19T11:17:50.217Z,100673.85
2017-08-19T11:18:57.139Z,100660.34
2017-08-19T11:20:04.606Z,100670.34
2017-08-19T11:21:11.866Z,100674.63
2017-08-19T11:22:19.039Z,100667.41
2017-08-19T11:23:25.520Z,100669.23
2017-08-19T11:24:34.294Z,100674.41
2017-08-19T11:25:41.695Z,100682.63
2017-08-19T11:26:48.683Z,100667.56
2017-08-19T11:27:54.839Z,100662.55
2017-08-19T11:29:06.114Z,100658.49
2017-08-19T11:30:12.126Z,100668.55
2017-08-19T11:31:36.753Z,100672.13
2017-08-19T11:32:42.921Z,100665.97
2017-08-19T11:33:49.129Z,100677.77
2017-08-19T11:34:56.406Z,100667.56
2017-08-19T11:36:21.426Z,100669.11
2017-08-19T11:37:31.715Z,100667.05
2017-08-19T11:38:37.923Z,100666.67
2017-08-19T11:41:28.445Z,100660.70
2017-08-19T11:42:34.573Z,100659.72
2017-08-19T11:43:40.625Z,100660.02
2017-08-19T11:44:51.517Z,100660.58
2017-08-19T11:45:57.487Z,100663.54
2017-08-19T11:47:03.603Z,100664.59
2017-08-19T11:48:09.702Z,100673.63
2017-08-19T11:49:15.797Z,100675.54
2017-08-19T11:50:24.409Z,100662.66
2017-08-19T11:51:33.654Z,100662.44
2017-08-19T11:52:39.667Z,100666.88
2017-08-19T11:53:45.791Z,100668.11
2017-08-19T11:54:51.872Z,100652.77
2017-08-19T11:55:57.924Z,100663.16
2017-08-19T11:57:04.055Z,100651.94
2017-08-19T11:58:10.093Z,100658.86
2017-08-19T11:59:16.169Z,100655.34
2017-08-19T12:00:22.192Z,100654.66
2017-08-19T12:01:28.039Z,100660.80
2017-08-19T12:02:33.865Z,100657.97
2017-08-19T12:03:39.952Z,100665.78
2017-08-19T12:04:46.029Z,100659.73
2017-08-19T12:05:51.890Z,100663.56
2017-08-19T12:06:58.723Z,100672.62
2017-08-19T12:08:06.135Z,100660.83
2017-08-19T12:09:13.726Z,100665.20
2017-08-19T12:10:21.338Z,100666.80
2017-08-19T12:11:29.580Z,100663.39
2017-08-19T12:12:36.900Z,100669.34
2017-08-19T12:13:43.914Z,100669.65
2017-08-19T12:14:51.583Z,100664.88
2017-08-19T12:15:59.101Z,100671.13
2017-08-19T12:17:06.503Z,100664.43
2017-08-19T12:18:13.592Z,100671.25
2017-08-19T12:19:20.763Z,100664.70
2017-08-19T12:20:27.725Z,100672.25
2017-08-19T12:21:35.076Z,100676.88
2017-08-19T12:22:42.442Z,100666.55
2017-08-19T12:23:49.657Z,100675.94
2017-08-19T12:24:57.216Z,100681.62
2017-08-19T12:26:03.676Z,100675.66
2017-08-19T12:27:10.664Z,100678.09
2017-08-19T12:28:18.640Z,100676.18
2017-08-19T12:29:27.318Z,100676.64
2017-08-19T12:30:36.840Z,100674.11
2017-08-19T12:31:48.966Z,100676.25
2017-08-19T12:32:58.179Z,100683.39
2017-08-19T12:34:05.413Z,100684.90
2017-08-19T12:35:13.670Z,100688.03
2017-08-19T12:36:21.713Z,100682.20
2017-08-19T12:37:29.222Z,100690.95
2017-08-19T12:38:38.243Z,100683.99
2017-08-19T12:39:57.533Z,100686.98
2017-08-19T12:41:11.287Z,100696.78
2017-08-19T12:42:20.590Z,100700.17
2017-08-19T12:43:28.740Z,100705.79
2017-08-19T12:44:37.742Z,100689.66
2017-08-19T12:45:45.430Z,100700.79
2017-08-19T12:46:57.735Z,100692.36
2017-08-19T12:49:33.391Z,100698.04
2017-08-19T12:50:41.497Z,100700.19
2017-08-19T12:51:49.438Z,100695.17